sensor_id;sensor_type;location;lat;lon;timestamp;pressure;altitude;pressure_sealevel;temperature;humidity
63115;BME280;49208;50.874;6.466;2023-12-07T07:01:24;100832.72;;;-3.27;100.00
63115;BME280;49208;50.874;6.466;2023-12-07T07:03:50;100839.81;;;-3.20;100.00
63115;BME280;49208;50.874;6.466;2023-12-07T07:06:16;100840.84;;;-3.15;100.00
63115;BME280;49208;50.874;6.466;2023-12-07T07:08:41;100851.34;;;-3.12;100.00
63115;BME280;49208;50.874;6.466;2023-12-07T07:11:12;100850.56;;;-3.09;100.00
63115;BME280;49208;50.874;6.466;2023-12-07T07:13:38;100851.50;;;-3.06;100.00
63115;BME280;49208;50.874;6.466;2023-12-07T07:16:04;100848.13;;;-3.01;100.00
63115;BME280;49208;50.874;6.466;2023-12-07T07:18:29;100851.75;;;-2.96;100.00
63115;BME280;49208;50.874;6.466;2023-12-07T07:20:55;100848.38;;;-2.92;100.00
63115;BME280;49208;50.874;6.466;2023-12-07T07:23:20;100839.81;;;-2.87;100.00
63115;BME280;49208;50.874;6.466;2023-12-07T07:25:45;100841.72;;;-2.81;100.00
63115;BME280;49208;50.874;6.466;2023-12-07T07:28:10;100840.03;;;-2.79;100.00
63115;BME280;49208;50.874;6.466;2023-12-07T07:30:36;100840.91;;;-2.78;100.00
63115;BME280;49208;50.874;6.466;2023-12-07T07:33:01;100842.69;;;-2.77;100.00
63115;BME280;49208;50.874;6.466;2023-12-07T07:35:27;100844.47;;;-2.75;100.00
63115;BME280;49208;50.874;6.466;2023-12-07T07:37:52;100846.25;;;-2.72;100.00
63115;BME280;49208;50.874;6.466;2023-12-07T07:40:19;100842.88;;;-2.70;100.00
63115;BME280;49208;50.874;6.466;2023-12-07T07:42:44;100840.28;;;-2.68;100.00
63115;BME280;49208;50.874;6.466;2023-12-07T07:45:10;100841.25;;;-2.65;100.00
63115;BME280;49208;50.874;6.466;2023-12-07T07:47:35;100841.34;;;-2.60;100.00
63115;BME280;49208;50.874;6.466;2023-12-07T07:50:01;100845.88;;;-2.53;100.00
63115;BME280;49208;50.874;6.466;2023-12-07T07:52:32;100844.25;;;-2.48;100.00
63115;BME280;49208;50.874;6.466;2023-12-07T07:54:58;100854.78;;;-2.43;100.00
63115;BME280;49208;50.874;6.466;2023-12-07T07:57:23;100849.69;;;-2.38;100.00
63115;BME280;49208;50.874;6.466;2023-12-07T07:59:49;100848.94;;;-2.33;100.00
63115;BME280;49208;50.874;6.466;2023-12-07T08:02:14;100847.34;;;-2.28;100.00
63115;BME280;49208;50.874;6.466;2023-12-07T08:04:40;100851.72;;;-2.25;100.00
63115;BME280;49208;50.874;6.466;2023-12-07T08:07:05;100858.78;;;-2.21;100.00
63115;BME280;49208;50.874;6.466;2023-12-07T08:09:33;100860.63;;;-2.17;100.00
63115;BME280;49208;50.874;6.466;2023-12-07T08:11:58;100852.88;;;-2.12;100.00
63115;BME280;49208;50.874;6.466;2023-12-07T08:14:23;100858.19;;;-2.08;100.00
63115;BME280;49208;50.874;6.466;2023-12-07T08:16:49;100853.97;;;-2.03;100.00
63115;BME280;49208;50.874;6.466;2023-12-07T08:19:14;100848.91;;;-1.96;100.00
63115;BME280;49208;50.874;6.466;2023-12-07T08:21:40;100850.78;;;-1.91;100.00
63115;BME280;49208;50.874;6.466;2023-12-07T08:24:05;100850.00;;;-1.87;100.00
63115;BME280;49208;50.874;6.466;2023-12-07T08:26:31;100851.00;;;-1.80;100.00
63115;BME280;49208;50.874;6.466;2023-12-07T08:28:57;100850.25;;;-1.73;100.00
63115;BME280;49208;50.874;6.466;2023-12-07T08:31:22;100846.06;;;-1.65;100.00
63115;BME280;49208;50.874;6.466;2023-12-07T08:33:50;100842.75;;;-1.57;100.00
63115;BME280;49208;50.874;6.466;2023-12-07T08:36:15;100852.50;;;-1.49;100.00
63115;BME280;49208;50.874;6.466;2023-12-07T08:38:41;100857.09;;;-1.37;100.00
63115;BME280;49208;50.874;6.466;2023-12-07T08:41:07;100852.19;;;-1.18;100.00
63115;BME280;49208;50.874;6.466;2023-12-07T08:43:32;100844.13;;;-0.84;100.00
63115;BME280;49208;50.874;6.466;2023-12-07T08:45:58;100840.28;;;-0.52;100.00
63115;BME280;49208;50.874;6.466;2023-12-07T08:48:23;100837.84;;;-0.40;100.00
63115;BME280;49208;50.874;6.466;2023-12-07T08:50:48;100837.00;;;-0.37;100.00
63115;BME280;49208;50.874;6.466;2023-12-07T08:53:14;100824.75;;;-0.42;100.00
63115;BME280;49208;50.874;6.466;2023-12-07T08:55:39;100827.34;;;-0.42;100.00
63115;BME280;49208;50.874;6.466;2023-12-07T08:58:05;100835.25;;;-0.40;100.00
63115;BME280;49208;50.874;6.466;2023-12-07T09:00:31;100834.41;;;-0.39;100.00
63115;BME280;49208;50.874;6.466;2023-12-07T09:02:57;100834.44;;;-0.36;100.00
63115;BME280;49208;50.874;6.466;2023-12-07T09:05:22;100829.25;;;-0.33;100.00
63115;BME280;49208;50.874;6.466;2023-12-07T09:07:48;100838.91;;;-0.29;100.00
63115;BME280;49208;50.874;6.466;2023-12-07T09:10:13;100834.66;;;-0.19;100.00
63115;BME280;49208;50.874;6.466;2023-12-07T09:12:39;100835.91;;;0.08;100.00
63115;BME280;49208;50.874;6.466;2023-12-07T09:15:04;100835.69;;;0.59;100.00
63115;BME280;49208;50.874;6.466;2023-12-07T09:17:32;100827.47;;;1.08;100.00
63115;BME280;49208;50.874;6.466;2023-12-07T09:19:57;100821.63;;;1.45;100.00
63115;BME280;49208;50.874;6.466;2023-12-07T09:22:23;100827.94;;;1.67;100.00
63115;BME280;49208;50.874;6.466;2023-12-07T09:24:48;100833.28;;;1.82;100.00
63115;BME280;49208;50.874;6.466;2023-12-07T09:27:13;100837.75;;;2.03;100.00
63115;BME280;49208;50.874;6.466;2023-12-07T09:29:39;100835.25;;;2.18;100.00
63115;BME280;49208;50.874;6.466;2023-12-07T09:32:06;100836.16;;;2.34;100.00
63115;BME280;49208;50.874;6.466;2023-12-07T09:34:31;100830.16;;;2.55;100.00
63115;BME280;49208;50.874;6.466;2023-12-07T09:37:10;100832.78;;;2.61;100.00
63115;BME280;49208;50.874;6.466;2023-12-07T09:39:36;100832.81;;;2.77;100.00
63115;BME280;49208;50.874;6.466;2023-12-07T09:42:01;100839.88;;;2.92;100.00
63115;BME280;49208;50.874;6.466;2023-12-07T09:44:27;100853.88;;;2.85;100.00
63115;BME280;49208;50.874;6.466;2023-12-07T09:46:53;100849.50;;;2.96;100.00
63115;BME280;49208;50.874;6.466;2023-12-07T09:49:18;100846.06;;;3.14;100.00
63115;BME280;49208;50.874;6.466;2023-12-07T09:51:44;100846.94;;;3.20;100.00
63115;BME280;49208;50.874;6.466;2023-12-07T09:54:12;100840.81;;;3.31;100.00
63115;BME280;49208;50.874;6.466;2023-12-07T09:56:37;100839.06;;;3.40;100.00
63115;BME280;49208;50.874;6.466;2023-12-07T09:59:03;100830.28;;;3.55;100.00
63115;BME280;49208;50.874;6.466;2023-12-07T10:01:29;100824.09;;;3.73;100.00
63115;BME280;49208;50.874;6.466;2023-12-07T10:04:18;100822.34;;;3.71;100.00
63115;BME280;49208;50.874;6.466;2023-12-07T10:06:45;100815.31;;;3.71;100.00
63115;BME280;49208;50.874;6.466;2023-12-07T10:09:10;100807.44;;;3.68;100.00
63115;BME280;49208;50.874;6.466;2023-12-07T10:11:37;100809.19;;;3.71;100.00
63115;BME280;49208;50.874;6.466;2023-12-07T10:14:02;100797.78;;;3.72;100.00
63115;BME280;49208;50.874;6.466;2023-12-07T10:16:27;100786.34;;;3.83;100.00
63115;BME280;49208;50.874;6.466;2023-12-07T10:18:53;100781.03;;;4.03;100.00
63115;BME280;49208;50.874;6.466;2023-12-07T10:21:33;100779.25;;;4.13;100.00
63115;BME280;49208;50.874;6.466;2023-12-07T10:23:59;100767.84;;;4.11;100.00
63115;BME280;49208;50.874;6.466;2023-12-07T10:26:24;100784.47;;;4.19;100.00
63115;BME280;49208;50.874;6.466;2023-12-07T10:28:50;100773.06;;;4.22;100.00
63115;BME280;49208;50.874;6.466;2023-12-07T10:31:18;100769.53;;;4.24;100.00
63115;BME280;49208;50.874;6.466;2023-12-07T10:33:47;100761.59;;;4.29;100.00
63115;BME280;49208;50.874;6.466;2023-12-07T10:36:13;100753.75;;;4.18;100.00
63115;BME280;49208;50.874;6.466;2023-12-07T10:38:40;100746.78;;;4.02;100.00
63115;BME280;49208;50.874;6.466;2023-12-07T10:41:09;100748.59;;;3.84;100.00
63115;BME280;49208;50.874;6.466;2023-12-07T10:43:39;100748.66;;;3.66;100.00
63115;BME280;49208;50.874;6.466;2023-12-07T10:46:08;100740.75;;;3.58;100.00
63115;BME280;49208;50.874;6.466;2023-12-07T10:48:35;100727.63;;;3.40;100.00
63115;BME280;49208;50.874;6.466;2023-12-07T10:51:02;100737.31;;;3.36;100.00
63115;BME280;49208;50.874;6.466;2023-12-07T10:53:37;100719.75;;;3.41;100.00
63115;BME280;49208;50.874;6.466;2023-12-07T10:56:10;100716.25;;;3.46;100.00
63115;BME280;49208;50.874;6.466;2023-12-07T10:58:38;100708.34;;;3.46;100.00
63115;BME280;49208;50.874;6.466;2023-12-07T11:01:04;100711.00;;;3.41;100.00
63115;BME280;49208;50.874;6.466;2023-12-07T11:03:32;100704.84;;;3.37;100.00
63115;BME280;49208;50.874;6.466;2023-12-07T11:05:58;100698.69;;;3.41;100.00
63115;BME280;49208;50.874;6.466;2023-12-07T11:08:28;100697.81;;;3.46;100.00
63115;BME280;49208;50.874;6.466;2023-12-07T11:11:15;100691.69;;;3.47;100.00
63115;BME280;49208;50.874;6.466;2023-12-07T11:14:06;100683.78;;;3.50;100.00
63115;BME280;49208;50.874;6.466;2023-12-07T11:16:35;100686.38;;;3.53;100.00
63115;BME280;49208;50.874;6.466;2023-12-07T11:19:01;100686.38;;;3.59;100.00
63115;BME280;49208;50.874;6.466;2023-12-07T11:21:27;100674.06;;;3.62;100.00
63115;BME280;49208;50.874;6.466;2023-12-07T11:23:53;100663.56;;;3.59;100.00
63115;BME280;49208;50.874;6.466;2023-12-07T11:26:28;100660.91;;;3.62;100.00
63115;BME280;49208;50.874;6.466;2023-12-07T11:28:54;100665.31;;;3.62;100.00
63115;BME280;49208;50.874;6.466;2023-12-07T11:31:21;100663.53;;;3.67;100.00
63115;BME280;49208;50.874;6.466;2023-12-07T11:33:46;100660.91;;;3.64;100.00
63115;BME280;49208;50.874;6.466;2023-12-07T11:36:13;100672.34;;;3.61;100.00
63115;BME280;49208;50.874;6.466;2023-12-07T11:41:34;100667.91;;;3.73;100.00
63115;BME280;49208;50.874;6.466;2023-12-07T11:43:59;100675.81;;;3.76;100.00
63115;BME280;49208;50.874;6.466;2023-12-07T11:46:25;100663.50;;;3.78;100.00
63115;BME280;49208;50.874;6.466;2023-12-07T11:48:50;100659.97;;;3.80;99.85
63115;BME280;49208;50.874;6.466;2023-12-07T11:51:17;100657.38;;;3.76;100.00
63115;BME280;49208;50.874;6.466;2023-12-07T11:53:43;100656.50;;;3.69;99.28
63115;BME280;49208;50.874;6.466;2023-12-07T11:56:09;100658.28;;;3.64;99.91
63115;BME280;49208;50.874;6.466;2023-12-07T11:58:36;100653.03;;;3.58;97.66
63115;BME280;49208;50.874;6.466;2023-12-07T12:01:02;100659.22;;;3.46;98.01
63115;BME280;49208;50.874;6.466;2023-12-07T12:03:29;100651.38;;;3.38;99.54
63115;BME280;49208;50.874;6.466;2023-12-07T12:05:55;100658.38;;;3.32;99.60
63115;BME280;49208;50.874;6.466;2023-12-07T12:08:21;100654.88;;;3.34;100.00
63115;BME280;49208;50.874;6.466;2023-12-07T12:10:48;100642.59;;;3.33;99.27
63115;BME280;49208;50.874;6.466;2023-12-07T12:13:15;100637.34;;;3.36;100.00
63115;BME280;49208;50.874;6.466;2023-12-07T12:15:41;100639.94;;;3.46;99.79
63115;BME280;49208;50.874;6.466;2023-12-07T12:18:08;100630.28;;;3.44;98.25
63115;BME280;49208;50.874;6.466;2023-12-07T12:20:33;100619.75;;;3.41;98.10
63115;BME280;49208;50.874;6.466;2023-12-07T12:22:59;100609.22;;;3.46;99.70
63115;BME280;49208;50.874;6.466;2023-12-07T12:25:29;100615.34;;;3.51;100.00
63115;BME280;49208;50.874;6.466;2023-12-07T12:28:01;100605.69;;;3.52;98.31
63115;BME280;49208;50.874;6.466;2023-12-07T12:30:28;100606.63;;;3.44;100.00
63115;BME280;49208;50.874;6.466;2023-12-07T12:32:53;100589.97;;;3.41;99.99
63115;BME280;49208;50.874;6.466;2023-12-07T12:35:19;100599.59;;;3.40;99.53
63115;BME280;49208;50.874;6.466;2023-12-07T12:37:46;100594.38;;;3.34;99.47
63115;BME280;49208;50.874;6.466;2023-12-07T12:40:12;100592.59;;;3.32;100.00
63115;BME280;49208;50.874;6.466;2023-12-07T12:42:52;100582.09;;;3.27;100.00
63115;BME280;49208;50.874;6.466;2023-12-07T12:45:18;100579.50;;;3.21;100.00
63115;BME280;49208;50.874;6.466;2023-12-07T12:47:45;100579.53;;;3.18;100.00
63115;BME280;49208;50.874;6.466;2023-12-07T12:50:12;100574.25;;;3.13;100.00
63115;BME280;49208;50.874;6.466;2023-12-07T12:52:40;100562.00;;;3.11;100.00
63115;BME280;49208;50.874;6.466;2023-12-07T12:55:11;100559.38;;;3.06;100.00
63115;BME280;49208;50.874;6.466;2023-12-07T12:57:37;100559.38;;;3.06;100.00
63115;BME280;49208;50.874;6.466;2023-12-07T13:00:04;100549.75;;;3.05;100.00
63115;BME280;49208;50.874;6.466;2023-12-07T13:02:29;100534.84;;;3.02;100.00
63115;BME280;49208;50.874;6.466;2023-12-07T13:04:55;100524.31;;;3.06;100.00
63115;BME280;49208;50.874;6.466;2023-12-07T13:07:21;100508.53;;;3.10;100.00
63115;BME280;49208;50.874;6.466;2023-12-07T13:09:46;100501.50;;;3.12;100.00
63115;BME280;49208;50.874;6.466;2023-12-07T13:12:12;100504.09;;;3.17;100.00
63115;BME280;49208;50.874;6.466;2023-12-07T13:14:38;100500.59;;;3.16;100.00
63115;BME280;49208;50.874;6.466;2023-12-07T13:17:05;100486.56;;;3.17;100.00
63115;BME280;49208;50.874;6.466;2023-12-07T13:19:30;100488.31;;;3.15;100.00
63115;BME280;49208;50.874;6.466;2023-12-07T13:21:56;100493.59;;;3.17;100.00
63115;BME280;49208;50.874;6.466;2023-12-07T13:24:22;100487.47;;;3.16;100.00
63115;BME280;49208;50.874;6.466;2023-12-07T13:26:47;100487.50;;;3.12;100.00
63115;BME280;49208;50.874;6.466;2023-12-07T13:29:13;100478.75;;;3.00;100.00
63115;BME280;49208;50.874;6.466;2023-12-07T13:31:38;100477.91;;;2.94;100.00
63115;BME280;49208;50.874;6.466;2023-12-07T13:34:03;100475.28;;;2.86;100.00
63115;BME280;49208;50.874;6.466;2023-12-07T13:36:29;100470.97;;;2.79;100.00
63115;BME280;49208;50.874;6.466;2023-12-07T13:38:56;100472.72;;;2.74;100.00
63115;BME280;49208;50.874;6.466;2023-12-07T13:41:22;100476.25;;;2.63;100.00
63115;BME280;49208;50.874;6.466;2023-12-07T13:43:48;100485.91;;;2.60;100.00
63115;BME280;49208;50.874;6.466;2023-12-07T13:46:14;100483.28;;;2.54;100.00
63115;BME280;49208;50.874;6.466;2023-12-07T13:48:41;100482.44;;;2.46;100.00
63115;BME280;49208;50.874;6.466;2023-12-07T13:51:07;100483.31;;;2.38;100.00
63115;BME280;49208;50.874;6.466;2023-12-07T13:53:32;100478.97;;;2.33;100.00
63115;BME280;49208;50.874;6.466;2023-12-07T13:55:59;100491.22;;;2.28;100.00
63115;BME280;49208;50.874;6.466;2023-12-07T13:58:24;100489.47;;;2.23;100.00
63115;BME280;49208;50.874;6.466;2023-12-07T14:00:50;100483.34;;;2.17;100.00
63115;BME280;49208;50.874;6.466;2023-12-07T14:03:16;100478.97;;;2.13;100.00
63115;BME280;49208;50.874;6.466;2023-12-07T14:05:41;100474.63;;;2.06;100.00
63115;BME280;49208;50.874;6.466;2023-12-07T14:08:07;100464.97;;;2.03;100.00
63115;BME280;49208;50.874;6.466;2023-12-07T14:10:33;100456.22;;;1.98;100.00
63115;BME280;49208;50.874;6.466;2023-12-07T14:12:59;100443.09;;;1.92;100.00
63115;BME280;49208;50.874;6.466;2023-12-07T14:15:25;100443.09;;;1.86;100.00
63115;BME280;49208;50.874;6.466;2023-12-07T14:17:50;100432.59;;;1.82;100.00
63115;BME280;49208;50.874;6.466;2023-12-07T14:20:16;100428.22;;;1.78;100.00
63115;BME280;49208;50.874;6.466;2023-12-07T14:22:41;100429.13;;;1.74;100.00
63115;BME280;49208;50.874;6.466;2023-12-07T14:25:07;100431.72;;;1.70;100.00
63115;BME280;49208;50.874;6.466;2023-12-07T14:27:32;100427.34;;;1.67;100.00
63115;BME280;49208;50.874;6.466;2023-12-07T14:29:58;100415.13;;;1.65;100.00
63115;BME280;49208;50.874;6.466;2023-12-07T14:32:24;100409.84;;;1.61;100.00
63115;BME280;49208;50.874;6.466;2023-12-07T14:34:49;100399.38;;;1.57;100.00
63115;BME280;49208;50.874;6.466;2023-12-07T14:37:16;100398.50;;;1.56;100.00
63115;BME280;49208;50.874;6.466;2023-12-07T14:39:42;100386.25;;;1.52;100.00
63115;BME280;49208;50.874;6.466;2023-12-07T14:42:09;100379.25;;;1.51;100.00
63115;BME280;49208;50.874;6.466;2023-12-07T14:44:34;100380.13;;;1.50;100.00
63115;BME280;49208;50.874;6.466;2023-12-07T14:47:00;100381.88;;;1.47;100.00
63115;BME280;49208;50.874;6.466;2023-12-07T14:49:26;100373.13;;;1.46;100.00
63115;BME280;49208;50.874;6.466;2023-12-07T14:51:54;100361.78;;;1.46;100.00
63115;BME280;49208;50.874;6.466;2023-12-07T14:54:21;100360.91;;;1.42;100.00
63115;BME280;49208;50.874;6.466;2023-12-07T14:56:46;100357.41;;;1.40;100.00
63115;BME280;49208;50.874;6.466;2023-12-07T14:59:12;100357.41;;;1.35;100.00
63115;BME280;49208;50.874;6.466;2023-12-07T15:01:38;100353.00;;;1.33;100.00
63115;BME280;49208;50.874;6.466;2023-12-07T15:04:05;100341.66;;;1.29;100.00
63115;BME280;49208;50.874;6.466;2023-12-07T15:06:33;100339.03;;;1.25;100.00
63115;BME280;49208;50.874;6.466;2023-12-07T15:08:59;100346.03;;;1.19;100.00
63115;BME280;49208;50.874;6.466;2023-12-07T15:11:24;100340.78;;;1.19;100.00
63115;BME280;49208;50.874;6.466;2023-12-07T15:13:50;100335.53;;;1.16;100.00
63115;BME280;49208;50.874;6.466;2023-12-07T15:16:15;100337.28;;;1.11;100.00
63115;BME280;49208;50.874;6.466;2023-12-07T15:18:41;100333.78;;;1.09;100.00
63115;BME280;49208;50.874;6.466;2023-12-07T15:21:13;100333.78;;;1.06;100.00
63115;BME280;49208;50.874;6.466;2023-12-07T15:23:42;100342.50;;;0.99;100.00
63115;BME280;49208;50.874;6.466;2023-12-07T15:26:08;100336.38;;;0.94;100.00
63115;BME280;49208;50.874;6.466;2023-12-07T15:28:35;100341.59;;;0.89;100.00
63115;BME280;49208;50.874;6.466;2023-12-07T15:31:01;100343.38;;;0.87;100.00
63115;BME280;49208;50.874;6.466;2023-12-07T15:33:27;100338.09;;;0.83;100.00
63115;BME280;49208;50.874;6.466;2023-12-07T15:35:52;100350.31;;;0.82;100.00
63115;BME280;49208;50.874;6.466;2023-12-07T15:38:17;100344.19;;;0.78;100.00
63115;BME280;49208;50.874;6.466;2023-12-07T15:40:43;100338.06;;;0.76;100.00
63115;BME280;49208;50.874;6.466;2023-12-07T15:43:08;100338.97;;;0.71;100.00
63115;BME280;49208;50.874;6.466;2023-12-07T15:45:34;100327.59;;;0.67;100.00
63115;BME280;49208;50.874;6.466;2023-12-07T15:48:00;100337.19;;;0.67;100.00
63115;BME280;49208;50.874;6.466;2023-12-07T15:50:25;100327.56;;;0.66;100.00
63115;BME280;49208;50.874;6.466;2023-12-07T15:52:50;100324.94;;;0.66;100.00
63115;BME280;49208;50.874;6.466;2023-12-07T15:55:16;100317.97;;;0.63;100.00
63115;BME280;49208;50.874;6.466;2023-12-07T15:57:41;100317.09;;;0.61;100.00
63115;BME280;49208;50.874;6.466;2023-12-07T16:00:07;100319.72;;;0.61;100.00
63115;BME280;49208;50.874;6.466;2023-12-07T16:02:33;100318.81;;;0.57;100.00
63115;BME280;49208;50.874;6.466;2023-12-07T16:05:03;100316.19;;;0.57;100.00
63115;BME280;49208;50.874;6.466;2023-12-07T16:07:32;100310.94;;;0.53;100.00
63115;BME280;49208;50.874;6.466;2023-12-07T16:09:57;100312.72;;;0.52;100.00
63115;BME280;49208;50.874;6.466;2023-12-07T16:12:22;100314.44;;;0.49;100.00
63115;BME280;49208;50.874;6.466;2023-12-07T16:14:48;100304.81;;;0.48;100.00
63115;BME280;49208;50.874;6.466;2023-12-07T16:17:14;100297.81;;;0.45;100.00
63115;BME280;49208;50.874;6.466;2023-12-07T16:19:39;100296.06;;;0.46;100.00
63115;BME280;49208;50.874;6.466;2023-12-07T16:22:05;100276.00;;;0.45;100.00
63115;BME280;49208;50.874;6.466;2023-12-07T16:24:31;100281.22;;;0.43;100.00
63115;BME280;49208;50.874;6.466;2023-12-07T16:26:57;100277.75;;;0.44;100.00
63115;BME280;49208;50.874;6.466;2023-12-07T16:29:24;100278.63;;;0.43;100.00
63115;BME280;49208;50.874;6.466;2023-12-07T16:31:49;100276.03;;;0.42;100.00
63115;BME280;49208;50.874;6.466;2023-12-07T16:34:15;100276.00;;;0.43;100.00
63115;BME280;49208;50.874;6.466;2023-12-07T16:36:40;100271.66;;;0.44;100.00
63115;BME280;49208;50.874;6.466;2023-12-07T16:39:06;100255.06;;;0.43;100.00
63115;BME280;49208;50.874;6.466;2023-12-07T16:41:32;100255.06;;;0.42;100.00
63115;BME280;49208;50.874;6.466;2023-12-07T16:43:58;100248.97;;;0.39;100.00
63115;BME280;49208;50.874;6.466;2023-12-07T16:46:27;100244.59;;;0.40;100.00
63115;BME280;49208;50.874;6.466;2023-12-07T16:48:52;100238.47;;;0.38;100.00
63115;BME280;49208;50.874;6.466;2023-12-07T16:51:18;100232.38;;;0.37;100.00
63115;BME280;49208;50.874;6.466;2023-12-07T16:53:43;100235.84;;;0.41;100.00
63115;BME280;49208;50.874;6.466;2023-12-07T16:56:09;100242.84;;;0.37;100.00
63115;BME280;49208;50.874;6.466;2023-12-07T16:58:35;100240.22;;;0.37;100.00
63115;BME280;49208;50.874;6.466;2023-12-07T17:01:00;100230.59;;;0.36;100.00
63115;BME280;49208;50.874;6.466;2023-12-07T17:03:25;100231.47;;;0.37;100.00
63115;BME280;49208;50.874;6.466;2023-12-07T17:05:53;100232.38;;;0.37;100.00
63115;BME280;49208;50.874;6.466;2023-12-07T17:08:19;100226.28;;;0.42;100.00
63115;BME280;49208;50.874;6.466;2023-12-07T17:10:46;100222.75;;;0.43;100.00
63115;BME280;49208;50.874;6.466;2023-12-07T17:13:12;100225.38;;;0.43;100.00
63115;BME280;49208;50.874;6.466;2023-12-07T17:15:37;100225.41;;;0.39;100.00
63115;BME280;49208;50.874;6.466;2023-12-07T17:18:02;100228.88;;;0.40;100.00
63115;BME280;49208;50.874;6.466;2023-12-07T17:20:28;100216.66;;;0.37;100.00
63115;BME280;49208;50.874;6.466;2023-12-07T17:22:53;100204.41;;;0.35;100.00
63115;BME280;49208;50.874;6.466;2023-12-07T17:25:19;100211.41;;;0.39;100.00
63115;BME280;49208;50.874;6.466;2023-12-07T17:27:44;100213.19;;;0.42;100.00
63115;BME280;49208;50.874;6.466;2023-12-07T17:30:10;100213.16;;;0.45;100.00
63115;BME280;49208;50.874;6.466;2023-12-07T17:32:35;100214.91;;;0.47;100.00
63115;BME280;49208;50.874;6.466;2023-12-07T17:35:01;100203.56;;;0.47;100.00
63115;BME280;49208;50.874;6.466;2023-12-07T17:37:26;100198.34;;;0.42;100.00
63115;BME280;49208;50.874;6.466;2023-12-07T17:39:51;100194.84;;;0.40;100.00
63115;BME280;49208;50.874;6.466;2023-12-07T17:42:20;100194.84;;;0.38;100.00
63115;BME280;49208;50.874;6.466;2023-12-07T17:44:46;100186.09;;;0.36;100.00
63115;BME280;49208;50.874;6.466;2023-12-07T17:47:11;100190.47;;;0.36;100.00
63115;BME280;49208;50.874;6.466;2023-12-07T17:49:36;100182.59;;;0.33;100.00
63115;BME280;49208;50.874;6.466;2023-12-07T17:52:02;100178.25;;;0.32;100.00
63115;BME280;49208;50.874;6.466;2023-12-07T17:54:27;100183.47;;;0.29;100.00
63115;BME280;49208;50.874;6.466;2023-12-07T17:56:53;100181.72;;;0.26;100.00
63115;BME280;49208;50.874;6.466;2023-12-07T17:59:18;100186.97;;;0.23;100.00
63115;BME280;49208;50.874;6.466;2023-12-07T18:01:46;100184.31;;;0.18;100.00
63115;BME280;49208;50.874;6.466;2023-12-07T18:04:11;100188.66;;;0.13;100.00
63115;BME280;49208;50.874;6.466;2023-12-07T18:06:37;100180.81;;;0.12;100.00
63115;BME280;49208;50.874;6.466;2023-12-07T18:09:03;100192.16;;;0.09;100.00
63115;BME280;49208;50.874;6.466;2023-12-07T18:11:28;100193.00;;;0.05;100.00
63115;BME280;49208;50.874;6.466;2023-12-07T18:13:54;100186.88;;;0.02;100.00
63115;BME280;49208;50.874;6.466;2023-12-07T18:16:20;100186.88;;;0.02;100.00
63115;BME280;49208;50.874;6.466;2023-12-07T18:18:46;100186.03;;;-0.02;100.00
63115;BME280;49208;50.874;6.466;2023-12-07T18:21:12;100185.13;;;-0.03;100.00
63115;BME280;49208;50.874;6.466;2023-12-07T18:23:38;100178.16;;;-0.04;100.00
63115;BME280;49208;50.874;6.466;2023-12-07T18:26:03;100183.38;;;-0.05;100.00
63115;BME280;49208;50.874;6.466;2023-12-07T18:28:29;100181.63;;;-0.08;100.00
63115;BME280;49208;50.874;6.466;2023-12-07T18:30:54;100188.63;;;-0.08;100.00
63115;BME280;49208;50.874;6.466;2023-12-07T18:33:19;100184.25;;;-0.09;100.00
63115;BME280;49208;50.874;6.466;2023-12-07T18:35:45;100194.72;;;-0.08;100.00
63115;BME280;49208;50.874;6.466;2023-12-07T18:38:10;100184.25;;;-0.06;100.00
63115;BME280;49208;50.874;6.466;2023-12-07T18:40:36;100185.16;;;-0.04;100.00
63115;BME280;49208;50.874;6.466;2023-12-07T18:43:11;100190.34;;;-0.03;100.00
63115;BME280;49208;50.874;6.466;2023-12-07T18:45:41;100187.75;;;-0.03;100.00
63115;BME280;49208;50.874;6.466;2023-12-07T18:48:07;100186.88;;;-0.03;100.00
63115;BME280;49208;50.874;6.466;2023-12-07T18:50:33;100186.03;;;-0.02;100.00
63115;BME280;49208;50.874;6.466;2023-12-07T18:52:58;100190.34;;;-0.06;100.00
63115;BME280;49208;50.874;6.466;2023-12-07T18:55:24;100179.03;;;-0.06;100.00
63115;BME280;49208;50.874;6.466;2023-12-07T18:57:49;100164.16;;;-0.09;100.00
63115;BME280;49208;50.874;6.466;2023-12-07T19:00:16;100167.69;;;-0.08;100.00
63115;BME280;49208;50.874;6.466;2023-12-07T19:02:42;100164.19;;;-0.10;100.00
63115;BME280;49208;50.874;6.466;2023-12-07T19:05:08;100165.94;;;-0.09;100.00
63115;BME280;49208;50.874;6.466;2023-12-07T19:07:33;100158.97;;;-0.06;100.00
63115;BME280;49208;50.874;6.466;2023-12-07T19:09:59;100152.00;;;-0.08;100.00
63115;BME280;49208;50.874;6.466;2023-12-07T19:12:24;100145.88;;;-0.12;100.00
63115;BME280;49208;50.874;6.466;2023-12-07T19:14:50;100143.22;;;-0.15;100.00
63115;BME280;49208;50.874;6.466;2023-12-07T19:17:15;100145.84;;;-0.16;100.00
63115;BME280;49208;50.874;6.466;2023-12-07T19:19:40;100129.28;;;-0.17;100.00
63115;BME280;49208;50.874;6.466;2023-12-07T19:22:06;100123.19;;;-0.14;100.00
63115;BME280;49208;50.874;6.466;2023-12-07T19:24:31;100119.69;;;-0.13;100.00
63115;BME280;49208;50.874;6.466;2023-12-07T19:26:57;100121.41;;;-0.17;100.00
63115;BME280;49208;50.874;6.466;2023-12-07T19:29:22;100110.09;;;-0.17;100.00
63115;BME280;49208;50.874;6.466;2023-12-07T19:31:48;100110.09;;;-0.19;100.00
63115;BME280;49208;50.874;6.466;2023-12-07T19:34:13;100100.50;;;-0.22;100.00
63115;BME280;49208;50.874;6.466;2023-12-07T19:36:41;100106.59;;;-0.24;100.00
63115;BME280;49208;50.874;6.466;2023-12-07T19:39:12;100103.97;;;-0.24;100.00
63115;BME280;49208;50.874;6.466;2023-12-07T19:41:40;100102.25;;;-0.22;100.00
63115;BME280;49208;50.874;6.466;2023-12-07T19:44:06;100105.72;;;-0.22;100.00
63115;BME280;49208;50.874;6.466;2023-12-07T19:46:31;100103.97;;;-0.24;100.00